createdAt,value
2022-09-09T00:05:56.990Z,1.30
2022-09-09T00:12:34.220Z,1.40
2022-09-09T00:19:07.099Z,1.63
2022-09-09T00:25:17.859Z,1.50
2022-09-09T00:31:27.623Z,1.40
2022-09-09T00:37:32.881Z,2.07
2022-09-09T00:43:41.520Z,1.77
2022-09-09T00:50:04.222Z,1.80
2022-09-09T00:56:17.457Z,1.67
2022-09-09T01:02:36.298Z,1.87
2022-09-09T01:08:44.578Z,1.90
2022-09-09T01:14:53.023Z,1.70
2022-09-09T01:21:21.125Z,1.70
2022-09-09T01:27:24.270Z,1.87
2022-09-09T01:33:26.339Z,1.87
2022-09-09T01:39:28.903Z,2.03
2022-09-09T01:45:31.998Z,2.60
2022-09-09T01:51:35.950Z,2.00
2022-09-09T01:58:04.180Z,2.30
2022-09-09T02:04:53.452Z,1.80
2022-09-09T02:11:07.846Z,1.73
2022-09-09T02:17:20.249Z,2.00
2022-09-09T02:23:22.487Z,1.90
2022-09-09T02:29:31.436Z,2.00
2022-09-09T02:35:38.275Z,2.00
2022-09-09T02:41:43.808Z,2.80
2022-09-09T02:48:08.865Z,2.00
2022-09-09T02:54:32.713Z,1.80
2022-09-09T03:00:36.997Z,2.17
2022-09-09T03:06:38.897Z,2.10
2022-09-09T03:12:40.835Z,2.03
2022-09-09T03:18:43.565Z,2.50
2022-09-09T03:24:45.492Z,2.30
2022-09-09T03:30:47.369Z,2.40
2022-09-09T03:36:50.159Z,2.30
2022-09-09T03:42:52.088Z,2.00
2022-09-09T03:48:54.265Z,2.17
2022-09-09T03:54:57.781Z,2.10
2022-09-09T04:01:17.429Z,2.03
2022-09-09T04:07:19.524Z,2.60
2022-09-09T04:13:21.656Z,3.20
2022-09-09T04:19:23.656Z,2.70
2022-09-09T04:25:25.774Z,2.53
2022-09-09T04:31:27.703Z,2.23
2022-09-09T04:37:29.669Z,2.53
2022-09-09T04:43:31.856Z,1.93
2022-09-09T04:49:33.748Z,2.33
2022-09-09T04:55:36.066Z,2.43
2022-09-09T05:01:38.042Z,2.53
2022-09-09T05:07:39.943Z,2.30
2022-09-09T05:13:41.852Z,2.40
2022-09-09T05:19:44.074Z,2.00
2022-09-09T05:25:59.469Z,2.10
2022-09-09T05:32:01.690Z,2.13
2022-09-09T05:38:03.653Z,2.17
2022-09-09T05:44:06.096Z,1.80
2022-09-09T05:50:08.760Z,2.33
2022-09-09T05:56:28.886Z,2.30
2022-09-09T06:02:30.895Z,1.40
2022-09-09T06:08:39.947Z,1.90
2022-09-09T06:14:46.126Z,1.80
2022-09-09T06:21:05.289Z,2.00
2022-09-09T06:27:07.356Z,1.93
2022-09-09T06:33:10.461Z,1.70
2022-09-09T06:39:14.979Z,1.83
2022-09-09T06:45:18.233Z,2.00
2022-09-09T06:51:23.336Z,1.80
2022-09-09T06:57:36.830Z,1.50
2022-09-09T07:03:40.360Z,1.20
2022-09-09T07:09:42.332Z,1.50
2022-09-09T07:15:44.221Z,1.60
2022-09-09T07:21:46.199Z,1.30
2022-09-09T07:27:48.235Z,1.60
2022-09-09T07:33:50.337Z,1.50
2022-09-09T07:39:52.385Z,2.10
2022-09-09T07:46:00.189Z,1.37
2022-09-09T07:52:02.189Z,1.53
2022-09-09T07:58:04.137Z,1.53
2022-09-09T08:04:10.406Z,1.33
2022-09-09T08:10:12.311Z,1.70
2022-09-09T08:16:24.338Z,1.30
2022-09-09T08:22:27.181Z,1.50
2022-09-09T08:28:29.202Z,1.50
2022-09-09T08:34:32.240Z,1.90
2022-09-09T08:40:44.486Z,1.40
2022-09-09T08:47:14.899Z,1.33
2022-09-09T08:53:34.103Z,1.27
2022-09-09T08:59:37.268Z,1.50
2022-09-09T09:06:05.988Z,1.63
2022-09-09T09:12:19.862Z,1.70
2022-09-09T09:18:21.860Z,1.80
2022-09-09T09:24:33.456Z,1.70
2022-09-09T09:30:51.202Z,1.80
2022-09-09T09:36:58.876Z,1.50
2022-09-09T09:43:09.653Z,1.33
2022-09-09T09:49:11.844Z,1.60
2022-09-09T09:55:15.517Z,1.63
2022-09-09T10:01:28.209Z,1.50
2022-09-09T10:07:30.182Z,1.30
2022-09-09T10:13:50.885Z,1.80
2022-09-09T10:20:13.756Z,1.83
2022-09-09T10:26:40.840Z,1.50
2022-09-09T10:32:54.319Z,1.67
2022-09-09T10:39:04.667Z,1.43
2022-09-09T10:45:34.704Z,1.50
2022-09-09T10:52:15.183Z,1.90
2022-09-09T10:58:42.419Z,1.30
2022-09-09T11:05:04.718Z,1.37
2022-09-09T11:11:28.125Z,1.40
2022-09-09T11:17:59.671Z,1.50
2022-09-09T11:24:11.476Z,1.47
2022-09-09T11:30:44.191Z,1.50
2022-09-09T11:37:05.829Z,1.27
2022-09-09T11:43:22.983Z,1.33
2022-09-09T11:49:46.619Z,1.13
2022-09-09T11:55:49.100Z,1.50
2022-09-09T12:01:58.403Z,1.10
2022-09-09T12:08:03.055Z,1.50
2022-09-09T12:14:05.259Z,1.27
2022-09-09T12:20:17.219Z,1.87
2022-09-09T12:26:36.223Z,1.20
2022-09-09T12:32:39.055Z,1.20
2022-09-09T12:38:43.187Z,1.40
2022-09-09T12:45:04.283Z,1.27
2022-09-09T12:51:19.246Z,1.20
2022-09-09T12:57:28.272Z,1.17
2022-09-09T13:03:30.201Z,1.33
2022-09-09T13:09:32.822Z,1.10
2022-09-09T13:15:34.741Z,1.00
2022-09-09T13:21:39.343Z,1.40
2022-09-09T13:27:52.284Z,1.10
2022-09-09T13:33:54.456Z,1.20
2022-09-09T13:39:56.822Z,1.10
2022-09-09T13:46:07.212Z,1.20
2022-09-09T13:52:19.003Z,1.33
2022-09-09T13:58:23.721Z,1.00
2022-09-09T14:04:25.656Z,1.33
2022-09-09T14:10:27.955Z,1.00
2022-09-09T14:16:30.276Z,1.70
2022-09-09T14:22:32.215Z,1.20
2022-09-09T14:34:57.017Z,1.07
2022-09-09T14:40:59.518Z,1.30
2022-09-09T14:47:01.416Z,1.17
2022-09-09T14:53:03.405Z,1.00
2022-09-09T14:59:05.771Z,1.30
2022-09-09T15:05:08.335Z,0.93
2022-09-09T15:11:12.102Z,1.60
2022-09-09T15:17:14.811Z,1.07
2022-09-09T15:23:17.878Z,1.13
2022-09-09T15:29:19.955Z,1.00
2022-09-09T15:35:21.844Z,0.90
2022-09-09T15:41:24.348Z,1.23
2022-09-09T15:47:26.235Z,0.97
2022-09-09T15:53:28.125Z,1.13
2022-09-09T15:59:32.328Z,1.57
2022-09-09T16:05:34.637Z,1.43
2022-09-09T16:11:38.976Z,1.20
2022-09-09T16:17:40.921Z,0.87
2022-09-09T16:23:43.211Z,0.93
2022-09-09T16:29:45.092Z,1.43
2022-09-09T16:35:47.039Z,1.17
2022-09-09T16:41:50.554Z,1.23
2022-09-09T16:47:52.441Z,1.23
2022-09-09T16:53:55.678Z,1.43
2022-09-09T17:00:00.261Z,1.33
2022-09-09T17:06:05.279Z,1.83
2022-09-09T17:12:07.685Z,1.20
2022-09-09T17:18:11.652Z,1.30
2022-09-09T17:24:13.680Z,1.03
2022-09-09T17:30:17.344Z,1.33
2022-09-09T17:36:30.255Z,1.07
2022-09-09T17:42:32.201Z,1.00
2022-09-09T17:48:34.627Z,1.30
2022-09-09T17:54:37.157Z,0.90
2022-09-09T18:00:39.046Z,1.10
2022-09-09T18:06:45.049Z,1.20
2022-09-09T18:12:46.921Z,1.20
2022-09-09T18:18:50.365Z,1.60
2022-09-09T18:24:53.134Z,1.50
2022-09-09T18:30:55.522Z,1.33
2022-09-09T18:36:58.085Z,1.40
2022-09-09T18:43:00.277Z,1.30
2022-09-09T18:49:02.647Z,1.40
2022-09-09T18:55:05.189Z,1.40
2022-09-09T19:01:13.193Z,1.27
2022-09-09T19:07:15.187Z,1.20
2022-09-09T19:13:17.289Z,1.37
2022-09-09T19:19:23.461Z,1.00
2022-09-09T19:25:26.482Z,1.57
2022-09-09T19:31:28.958Z,1.20
2022-09-09T19:37:32.192Z,1.10
2022-09-09T19:43:34.933Z,1.47
2022-09-09T19:49:37.115Z,1.10
2022-09-09T19:55:39.662Z,1.23
2022-09-09T20:01:44.861Z,1.13
2022-09-09T20:07:46.925Z,1.27
2022-09-09T20:13:49.803Z,1.83
2022-09-09T20:19:51.691Z,2.80
2022-09-09T20:25:54.201Z,1.10
2022-09-09T20:31:56.076Z,1.40
2022-09-09T20:37:58.040Z,0.83
2022-09-09T20:44:12.323Z,1.10
2022-09-09T20:50:15.508Z,1.03
2022-09-09T20:56:17.476Z,1.17
2022-09-09T21:02:19.420Z,1.30
2022-09-09T21:08:21.335Z,1.10
2022-09-09T21:14:23.697Z,0.90
2022-09-09T21:20:26.060Z,1.33
2022-09-09T21:26:28.592Z,1.10
2022-09-09T21:32:30.510Z,1.10
2022-09-09T21:38:33.368Z,1.10
2022-09-09T21:44:35.379Z,1.10
2022-09-09T21:50:43.212Z,1.10
2022-09-09T21:56:45.128Z,1.10
2022-09-09T22:02:47.362Z,1.40
2022-09-09T22:08:49.299Z,1.33
2022-09-09T22:14:53.137Z,1.13
2022-09-09T22:20:55.287Z,1.20
2022-09-09T22:26:57.242Z,1.63
2022-09-09T22:33:01.153Z,0.93
2022-09-09T22:39:03.955Z,1.50
2022-09-09T22:45:06.672Z,1.40
2022-09-09T22:51:14.086Z,1.10
2022-09-09T22:57:16.078Z,1.40
2022-09-09T23:03:19.318Z,1.27
2022-09-09T23:09:21.221Z,1.20
2022-09-09T23:15:23.226Z,1.47
2022-09-09T23:21:28.154Z,1.30
2022-09-09T23:27:31.276Z,1.30
2022-09-09T23:33:34.410Z,1.40
2022-09-09T23:39:36.597Z,1.33
2022-09-09T23:45:38.552Z,1.20
2022-09-09T23:51:41.055Z,1.10
2022-09-09T23:57:42.978Z,1.30
